Time;durP1;ratioP1;P1;durP2;ratioP2;P2;SDS_P1;SDS_P2;PMS_P1;PMS_P2;Temp;Humidity;BMP_temperature;BMP_pressure;BME280_temperature;BME280_humidity;BME280_pressure;Samples;Min_cycle;Max_cycle;Signal;HPM_P1;HPM_P2
2022/11/18 00:00:48;;;;;;;3.78;0.50;;;;;;;;;;5081600;28;20039;-86
2022/11/18 00:03:13;;;;;;;3.95;0.43;;;;;;;;;;5079831;28;20020;-87
2022/11/18 00:05:42;;;;;;;0.30;0.30;;;;;;;;;;5082543;28;20031;-86
2022/11/18 00:08:10;;;;;;;2.30;0.35;;;;;;;;;;5080300;28;20038;-85
2022/11/18 00:10:38;;;;;;;0.70;0.60;;;;;;;;;;5095305;28;20110;-85
2022/11/18 00:15:47;;;;;;;0.30;0.30;;;;;;;;;;5083622;28;20776;-85
2022/11/18 00:18:12;;;;;;;0.40;0.40;;;;;;;;;;5083517;28;20028;-84
2022/11/18 00:20:38;;;;;;;0.60;0.60;;;;;;;;;;5080649;28;20112;-85
2022/11/18 00:23:03;;;;;;;0.40;0.40;;;;;;;;;;5079226;28;20075;-86
2022/11/18 00:25:29;;;;;;;1.17;0.60;;;;;;;;;;5080754;28;20487;-85
2022/11/18 00:27:54;;;;;;;0.95;0.50;;;;;;;;;;5078877;28;20971;-88
2022/11/18 00:30:20;;;;;;;0.50;0.50;;;;;;;;;;5080278;28;21029;-88
2022/11/18 00:32:45;;;;;;;3.30;0.50;;;;;;;;;;5081149;28;21321;-89
2022/11/18 00:35:10;;;;;;;0.30;0.30;;;;;;;;;;5077667;28;20028;-86
2022/11/18 00:37:36;;;;;;;0.50;0.50;;;;;;;;;;5079384;28;20028;-86
2022/11/18 00:40:02;;;;;;;0.50;0.50;;;;;;;;;;5074247;28;20088;-85
2022/11/18 00:45:11;;;;;;;1.02;0.70;;;;;;;;;;5074633;28;20054;-87
2022/11/18 00:47:36;;;;;;;0.88;0.80;;;;;;;;;;5075008;28;20028;-86
2022/11/18 00:50:02;;;;;;;1.27;0.80;;;;;;;;;;5078251;28;20046;-83
2022/11/18 00:52:27;;;;;;;0.93;0.60;;;;;;;;;;5072948;28;20039;-84
2022/11/18 00:54:52;;;;;;;1.35;0.77;;;;;;;;;;5075640;28;20040;-87
2022/11/18 00:57:20;;;;;;;3.63;0.60;;;;;;;;;;5075935;28;20066;-85
2022/11/18 00:59:45;;;;;;;1.75;0.57;;;;;;;;;;5071788;28;20036;-87
2022/11/18 01:02:11;;;;;;;4.85;0.90;;;;;;;;;;5101530;27;20031;-85
2022/11/18 01:04:36;;;;;;;5.57;0.98;;;;;;;;;;5074087;28;20032;-87
2022/11/18 01:07:01;;;;;;;1.27;0.65;;;;;;;;;;5091482;27;20484;-88
2022/11/18 01:09:27;;;;;;;0.30;0.30;;;;;;;;;;5067306;28;20588;-86
2022/11/18 01:14:36;;;;;;;0.80;0.60;;;;;;;;;;5079009;28;20245;-88
2022/11/18 01:17:02;;;;;;;1.27;0.80;;;;;;;;;;5078391;28;20533;-87
2022/11/18 01:19:27;;;;;;;2.63;0.50;;;;;;;;;;5079344;28;20035;-86
2022/11/18 01:21:55;;;;;;;0.40;0.40;;;;;;;;;;5076306;28;20024;-88
2022/11/18 01:24:21;;;;;;;1.08;0.57;;;;;;;;;;5075097;28;20090;-87
2022/11/18 01:26:46;;;;;;;1.45;0.52;;;;;;;;;;5076954;28;20016;-85
2022/11/18 01:29:12;;;;;;;0.38;0.38;;;;;;;;;;5081310;28;20472;-84
2022/11/18 01:31:37;;;;;;;0.35;0.35;;;;;;;;;;5076348;28;20043;-85
2022/11/18 01:34:03;;;;;;;6.93;0.60;;;;;;;;;;5078139;28;20052;-83
2022/11/18 01:36:28;;;;;;;0.50;0.50;;;;;;;;;;5077028;28;20073;-86
2022/11/18 01:38:54;;;;;;;0.30;0.30;;;;;;;;;;5075368;28;20032;-84
2022/11/18 01:41:23;;;;;;;0.40;0.40;;;;;;;;;;5076381;28;20009;-85
2022/11/18 01:43:59;;;;;;;3.30;0.70;;;;;;;;;;5078118;28;20094;-86
2022/11/18 01:46:27;;;;;;;0.55;0.50;;;;;;;;;;5078780;28;20082;-88
2022/11/18 01:49:10;;;;;;;0.30;0.30;;;;;;;;;;5079184;28;20032;-88
2022/11/18 01:51:53;;;;;;;1.42;0.45;;;;;;;;;;5096705;28;20029;-88
2022/11/18 01:54:27;;;;;;;0.52;0.40;;;;;;;;;;5078125;28;20086;-88
2022/11/18 01:56:56;;;;;;;0.20;0.20;;;;;;;;;;5082536;28;20036;-87
2022/11/18 01:59:26;;;;;;;1.40;0.40;;;;;;;;;;5082325;28;20495;-86
2022/11/18 02:01:54;;;;;;;2.65;0.30;;;;;;;;;;5082099;28;20024;-85
2022/11/18 02:04:20;;;;;;;0.13;0.13;;;;;;;;;;5079718;28;20760;-84
2022/11/18 02:06:46;;;;;;;1.08;0.47;;;;;;;;;;5093202;28;20052;-89
2022/11/18 02:09:13;;;;;;;0.30;0.30;;;;;;;;;;5093174;28;20055;-89
2022/11/18 02:11:53;;;;;;;0.47;0.40;;;;;;;;;;5076028;28;20488;-86
2022/11/18 02:14:25;;;;;;;0.40;0.40;;;;;;;;;;5080572;28;20028;-86
2022/11/18 02:17:07;;;;;;;0.45;0.30;;;;;;;;;;5080531;28;20035;-85
2022/11/18 02:19:45;;;;;;;;;;;;;;;;;;5077993;28;20050;-83
2022/11/18 02:22:42;;;;;;;0.60;0.22;;;;;;;;;;5074269;28;19920;-88
2022/11/18 02:25:42;;;;;;;0.32;0.32;;;;;;;;;;5076934;28;20032;-84
2022/11/18 02:28:29;;;;;;;0.30;0.30;;;;;;;;;;5075549;28;20140;-85
2022/11/18 02:31:03;;;;;;;0.55;0.35;;;;;;;;;;5079758;28;20032;-85
2022/11/18 02:33:51;;;;;;;8.20;0.50;;;;;;;;;;5098660;28;20049;-89
2022/11/18 02:36:27;;;;;;;0.32;0.30;;;;;;;;;;5083663;28;20059;-87
2022/11/18 02:39:01;;;;;;;0.73;0.32;;;;;;;;;;5073885;28;20024;-85
2022/11/18 02:41:31;;;;;;;1.45;0.43;;;;;;;;;;5081297;28;20024;-84
2022/11/18 02:44:04;;;;;;;0.65;0.43;;;;;;;;;;5087337;28;20107;-85
2022/11/18 02:46:34;;;;;;;2.80;1.45;;;;;;;;;;5075129;28;20020;-86
2022/11/18 02:49:02;;;;;;;0.20;0.20;;;;;;;;;;5072253;28;20032;-87
2022/11/18 02:51:30;;;;;;;0.20;0.20;;;;;;;;;;5078784;28;20074;-88
2022/11/18 02:54:01;;;;;;;0.40;0.40;;;;;;;;;;5079689;28;20020;-88
2022/11/18 02:56:27;;;;;;;0.30;0.30;;;;;;;;;;5077400;28;20085;-87
2022/11/18 02:58:53;;;;;;;0.30;0.30;;;;;;;;;;5077824;28;20043;-86
2022/11/18 03:01:28;;;;;;;0.40;0.40;;;;;;;;;;5083111;28;20008;-83
2022/11/18 03:03:54;;;;;;;3.35;0.75;;;;;;;;;;5093041;28;20096;-83
2022/11/18 03:06:34;;;;;;;1.20;0.50;;;;;;;;;;5087599;28;20071;-88
2022/11/18 03:09:15;;;;;;;0.30;0.30;;;;;;;;;;5097123;28;20486;-87
2022/11/18 03:12:05;;;;;;;0.55;0.43;;;;;;;;;;5080782;28;20032;-89
2022/11/18 03:15:01;;;;;;;4.68;0.65;;;;;;;;;;5102007;28;20028;-88
2022/11/18 03:17:45;;;;;;;1.08;0.40;;;;;;;;;;5084831;28;20102;-87
2022/11/18 03:20:49;;;;;;;2.45;0.40;;;;;;;;;;5080390;28;20020;-87
2022/11/18 03:23:34;;;;;;;0.55;0.38;;;;;;;;;;5065207;28;20033;-89
2022/11/18 03:26:10;;;;;;;0.40;0.40;;;;;;;;;;5082907;28;20081;-88
2022/11/18 03:29:02;;;;;;;0.65;0.30;;;;;;;;;;5081131;28;21567;-87
2022/11/18 03:31:34;;;;;;;2.75;0.57;;;;;;;;;;5053567;28;20205;-86
2022/11/18 03:34:09;;;;;;;2.45;0.90;;;;;;;;;;5076337;28;20062;-88
2022/11/18 03:36:40;;;;;;;2.80;1.27;;;;;;;;;;5074464;28;21160;-88
2022/11/18 03:39:08;;;;;;;1.45;0.68;;;;;;;;;;5075798;28;20023;-88
2022/11/18 03:41:50;;;;;;;1.10;0.70;;;;;;;;;;5070012;28;20023;-88
2022/11/18 03:44:21;;;;;;;0.52;0.52;;;;;;;;;;5074784;28;20450;-88
2022/11/18 03:46:54;;;;;;;3.17;0.60;;;;;;;;;;5075732;28;20120;-88
2022/11/18 03:49:26;;;;;;;0.35;0.35;;;;;;;;;;5078373;28;20063;-88
2022/11/18 03:51:57;;;;;;;1.95;0.50;;;;;;;;;;5074759;28;20028;-87
2022/11/18 03:54:25;;;;;;;0.30;0.30;;;;;;;;;;5077875;28;20381;-85
2022/11/18 03:56:58;;;;;;;1.85;0.20;;;;;;;;;;5076798;28;20530;-88
2022/11/18 03:59:43;;;;;;;0.20;0.20;;;;;;;;;;5076600;28;20107;-88
2022/11/18 04:02:18;;;;;;;0.50;0.50;;;;;;;;;;5079423;28;20150;-85
2022/11/18 04:04:46;;;;;;;1.50;0.57;;;;;;;;;;5084341;28;20024;-88
2022/11/18 04:07:14;;;;;;;1.73;0.30;;;;;;;;;;5094313;28;20036;-89
2022/11/18 04:10:09;;;;;;;1.83;0.47;;;;;;;;;;5086348;28;20032;-88
2022/11/18 04:12:41;;;;;;;2.13;0.30;;;;;;;;;;5085022;28;20108;-87
2022/11/18 04:15:06;;;;;;;6.85;0.55;;;;;;;;;;5081992;28;20110;-88
2022/11/18 04:17:32;;;;;;;1.05;0.70;;;;;;;;;;5080973;28;20116;-88
2022/11/18 04:19:57;;;;;;;5.15;0.43;;;;;;;;;;5081935;28;20060;-86
2022/11/18 04:22:23;;;;;;;0.30;0.30;;;;;;;;;;5082910;28;20031;-87
2022/11/18 04:24:48;;;;;;;0.60;0.52;;;;;;;;;;5081731;28;20039;-86
2022/11/18 04:27:13;;;;;;;1.75;0.77;;;;;;;;;;5084036;28;20020;-84
2022/11/18 04:29:39;;;;;;;4.22;0.50;;;;;;;;;;5094010;28;20082;-86
2022/11/18 04:32:05;;;;;;;0.50;0.50;;;;;;;;;;5095174;28;20032;-86
2022/11/18 04:34:31;;;;;;;0.20;0.20;;;;;;;;;;5095243;28;20020;-87
2022/11/18 04:36:57;;;;;;;1.85;0.43;;;;;;;;;;5094238;28;20077;-86
2022/11/18 04:39:22;;;;;;;0.50;0.50;;;;;;;;;;5091713;28;20032;-86
2022/11/18 04:41:57;;;;;;;0.55;0.50;;;;;;;;;;5094310;28;20024;-86
2022/11/18 04:44:33;;;;;;;0.63;0.35;;;;;;;;;;5079256;28;20135;-88
2022/11/18 04:47:00;;;;;;;1.15;0.68;;;;;;;;;;5081223;28;20015;-87
2022/11/18 04:49:26;;;;;;;0.43;0.43;;;;;;;;;;5076600;28;20035;-87
2022/11/18 04:51:52;;;;;;;0.32;0.32;;;;;;;;;;5073936;28;20501;-86
2022/11/18 04:54:21;;;;;;;4.35;0.60;;;;;;;;;;5090182;28;20035;-88
2022/11/18 04:56:47;;;;;;;3.53;0.65;;;;;;;;;;5075813;28;20241;-89
2022/11/18 04:59:13;;;;;;;0.40;0.40;;;;;;;;;;5092914;28;20111;-89
2022/11/18 05:01:38;;;;;;;0.40;0.40;;;;;;;;;;5076479;28;20117;-90
2022/11/18 05:04:05;;;;;;;1.95;0.73;;;;;;;;;;5080282;28;20476;-87
2022/11/18 05:06:32;;;;;;;0.20;0.20;;;;;;;;;;5080729;28;20047;-86
2022/11/18 05:08:58;;;;;;;0.38;0.30;;;;;;;;;;5080605;28;20028;-87
2022/11/18 05:14:09;;;;;;;0.35;0.35;;;;;;;;;;5078729;28;20053;-88
2022/11/18 05:16:34;;;;;;;1.45;0.40;;;;;;;;;;5076966;28;20024;-86
2022/11/18 05:19:04;;;;;;;0.20;0.20;;;;;;;;;;5097116;28;20028;-87
2022/11/18 05:21:30;;;;;;;0.20;0.20;;;;;;;;;;5077268;28;20028;-86
2022/11/18 05:23:57;;;;;;;1.08;0.63;;;;;;;;;;5079777;28;20460;-87
2022/11/18 05:26:23;;;;;;;0.98;0.32;;;;;;;;;;5079072;28;20045;-87
2022/11/18 05:28:48;;;;;;;0.88;0.50;;;;;;;;;;5077358;28;20017;-87
2022/11/18 05:31:15;;;;;;;0.10;0.10;;;;;;;;;;5113816;27;20028;-87
2022/11/18 05:33:41;;;;;;;0.47;0.30;;;;;;;;;;5079428;28;20020;-87
2022/11/18 05:36:09;;;;;;;0.35;0.35;;;;;;;;;;5082775;28;20033;-86
2022/11/18 05:38:35;;;;;;;0.25;0.25;;;;;;;;;;5086772;28;20028;-87
2022/11/18 05:41:01;;;;;;;0.50;0.50;;;;;;;;;;5087183;28;20020;-86
2022/11/18 05:43:28;;;;;;;0.85;0.52;;;;;;;;;;5089576;28;20027;-89
2022/11/18 05:45:53;;;;;;;0.32;0.32;;;;;;;;;;5088733;28;20024;-87
2022/11/18 05:48:19;;;;;;;1.13;0.40;;;;;;;;;;5083705;28;20016;-86
2022/11/18 05:50:47;;;;;;;2.50;0.40;;;;;;;;;;5079826;28;20506;-86
2022/11/18 05:53:13;;;;;;;3.63;0.38;;;;;;;;;;5083994;28;20024;-86
2022/11/18 05:55:45;;;;;;;0.30;0.30;;;;;;;;;;5079478;28;20047;-87
2022/11/18 05:58:10;;;;;;;;;;;;;;;;;;5102249;27;20012;-86
2022/11/18 06:00:36;;;;;;;0.57;0.40;;;;;;;;;;5081753;28;20058;-88
2022/11/18 06:03:07;;;;;;;0.35;0.35;;;;;;;;;;5086366;28;20044;-87
2022/11/18 06:05:32;;;;;;;0.98;0.50;;;;;;;;;;5085145;28;20919;-88
2022/11/18 06:07:57;;;;;;;0.38;0.38;;;;;;;;;;5088500;28;20051;-88
2022/11/18 06:10:31;;;;;;;0.73;0.73;;;;;;;;;;5079937;28;20070;-89
2022/11/18 06:13:01;;;;;;;0.43;0.32;;;;;;;;;;5087122;28;20039;-85
2022/11/18 06:15:31;;;;;;;0.20;0.20;;;;;;;;;;5097717;28;21436;-85
2022/11/18 06:17:57;;;;;;;2.70;0.80;;;;;;;;;;5093484;28;20023;-88
2022/11/18 06:20:22;;;;;;;1.00;0.80;;;;;;;;;;5082378;28;20032;-88
2022/11/18 06:22:51;;;;;;;1.20;0.60;;;;;;;;;;5086084;28;20118;-88
2022/11/18 06:25:16;;;;;;;3.42;0.60;;;;;;;;;;5112328;27;20113;-88
2022/11/18 06:27:42;;;;;;;1.02;0.50;;;;;;;;;;5090703;28;20115;-87
2022/11/18 06:30:08;;;;;;;0.28;0.28;;;;;;;;;;5110614;28;20038;-87
2022/11/18 06:32:34;;;;;;;3.33;0.77;;;;;;;;;;5086426;28;20024;-88
2022/11/18 06:34:59;;;;;;;0.90;0.52;;;;;;;;;;5087871;28;20027;-87
2022/11/18 06:37:24;;;;;;;0.32;0.32;;;;;;;;;;5089255;28;20036;-87
2022/11/18 06:39:50;;;;;;;0.50;0.50;;;;;;;;;;5095820;28;20496;-87
2022/11/18 06:43:37;;;;;;;0.70;0.35;;;;;;;;;;5074563;28;20020;-86
2022/11/18 06:45:02;;;;;;;1.23;0.45;;;;;;;;;;5108493;28;20032;-87
2022/11/18 06:47:28;;;;;;;0.35;0.35;;;;;;;;;;5081422;28;20040;-86
2022/11/18 06:49:53;;;;;;;1.65;0.47;;;;;;;;;;5089359;28;20035;-87
2022/11/18 06:52:18;;;;;;;0.70;0.57;;;;;;;;;;5096489;28;20029;-86
2022/11/18 06:54:44;;;;;;;0.50;0.40;;;;;;;;;;5082782;28;20062;-86
2022/11/18 06:57:09;;;;;;;0.43;0.43;;;;;;;;;;5082846;28;20032;-88
2022/11/18 06:59:34;;;;;;;0.22;0.22;;;;;;;;;;5105265;28;20638;-89
2022/11/18 07:02:00;;;;;;;0.52;0.52;;;;;;;;;;5108181;28;20032;-87
2022/11/18 07:04:25;;;;;;;0.43;0.43;;;;;;;;;;5090660;28;20549;-88
2022/11/18 07:06:50;;;;;;;4.95;0.80;;;;;;;;;;5099365;28;20027;-88
2022/11/18 07:09:16;;;;;;;0.43;0.43;;;;;;;;;;5095349;28;20486;-88
2022/11/18 07:11:41;;;;;;;3.20;0.60;;;;;;;;;;5098278;28;20032;-87
2022/11/18 07:14:12;;;;;;;0.85;0.60;;;;;;;;;;5077539;28;20043;-88
2022/11/18 07:16:37;;;;;;;0.60;0.43;;;;;;;;;;5096302;28;20086;-87
2022/11/18 07:19:11;;;;;;;0.75;0.57;;;;;;;;;;5117299;28;20031;-87
2022/11/18 07:21:37;;;;;;;0.50;0.50;;;;;;;;;;5103230;27;20028;-88
2022/11/18 07:24:06;;;;;;;0.43;0.43;;;;;;;;;;5114002;28;20217;-88
2022/11/18 07:26:31;;;;;;;0.60;0.60;;;;;;;;;;5101348;28;20028;-86
2022/11/18 07:28:57;;;;;;;0.52;0.52;;;;;;;;;;5104024;28;20059;-87
2022/11/18 07:31:22;;;;;;;0.40;0.40;;;;;;;;;;5095052;28;20039;-87
2022/11/18 07:33:48;;;;;;;1.05;0.50;;;;;;;;;;5100162;28;20038;-87
2022/11/18 07:36:18;;;;;;;0.30;0.30;;;;;;;;;;5094022;28;20102;-87
2022/11/18 07:38:51;;;;;;;0.30;0.30;;;;;;;;;;5093344;28;20036;-89
2022/11/18 07:45:58;;;;;;;0.40;0.40;;;;;;;;;;5103152;28;20054;-89
2022/11/18 07:49:25;;;;;;;0.38;0.35;;;;;;;;;;5094211;28;20391;-89
2022/11/18 07:52:48;;;;;;;0.98;0.70;;;;;;;;;;5072157;28;20059;-89
2022/11/18 07:59:22;;;;;;;0.98;0.60;;;;;;;;;;5047881;28;20070;-90
2022/11/18 08:02:53;;;;;;;0.47;0.47;;;;;;;;;;5067194;28;20025;-90
2022/11/18 08:05:19;;;;;;;0.70;0.70;;;;;;;;;;5072272;22;20036;-86
2022/11/18 08:07:44;;;;;;;0.70;0.70;;;;;;;;;;5050160;28;20131;-85
2022/11/18 08:10:10;;;;;;;0.40;0.40;;;;;;;;;;5045990;28;20021;-88
2022/11/18 08:12:35;;;;;;;0.47;0.47;;;;;;;;;;5036668;28;20093;-88
2022/11/18 08:15:03;;;;;;;0.70;0.70;;;;;;;;;;5035675;28;20070;-85
2022/11/18 08:17:28;;;;;;;0.45;0.45;;;;;;;;;;5018318;28;20402;-84
2022/11/18 08:19:53;;;;;;;2.78;0.70;;;;;;;;;;5016577;28;20108;-85
2022/11/18 08:22:19;;;;;;;0.40;0.40;;;;;;;;;;5029586;28;20010;-88
2022/11/18 08:24:46;;;;;;;0.50;0.50;;;;;;;;;;5049765;28;20013;-88
2022/11/18 08:27:12;;;;;;;0.50;0.50;;;;;;;;;;5034210;28;20030;-85
2022/11/18 08:29:37;;;;;;;0.43;0.40;;;;;;;;;;5044685;28;20033;-84
2022/11/18 08:32:04;;;;;;;6.40;0.50;;;;;;;;;;5034432;28;20087;-85
2022/11/18 08:34:29;;;;;;;0.30;0.30;;;;;;;;;;5052151;28;20025;-86
2022/11/18 08:36:55;;;;;;;0.43;0.43;;;;;;;;;;5060692;28;20035;-85
2022/11/18 08:39:20;;;;;;;0.43;0.40;;;;;;;;;;5048467;28;20029;-84
2022/11/18 08:41:46;;;;;;;0.40;0.40;;;;;;;;;;5033197;28;20022;-84
2022/11/18 08:44:14;;;;;;;0.40;0.40;;;;;;;;;;5042115;28;20029;-85
2022/11/18 08:46:41;;;;;;;4.32;0.63;;;;;;;;;;5039520;28;20487;-85
2022/11/18 08:49:06;;;;;;;2.47;0.50;;;;;;;;;;5032528;28;20476;-85
2022/11/18 08:51:32;;;;;;;0.63;0.40;;;;;;;;;;5016978;28;20033;-86
2022/11/18 08:53:57;;;;;;;0.30;0.30;;;;;;;;;;5024659;28;20069;-85
2022/11/18 08:56:24;;;;;;;0.93;0.65;;;;;;;;;;5041811;28;20087;-85
2022/11/18 08:58:50;;;;;;;0.80;0.57;;;;;;;;;;5033440;28;20346;-84
2022/11/18 09:01:15;;;;;;;0.30;0.30;;;;;;;;;;5040511;28;20033;-84
2022/11/18 09:03:40;;;;;;;0.43;0.43;;;;;;;;;;5038244;28;20025;-84
2022/11/18 09:06:11;;;;;;;0.55;0.52;;;;;;;;;;5023084;28;20029;-86
2022/11/18 09:08:38;;;;;;;4.38;0.80;;;;;;;;;;5022453;28;20029;-84
2022/11/18 09:11:07;;;;;;;1.02;0.50;;;;;;;;;;5038689;28;20092;-84
2022/11/18 09:13:32;;;;;;;1.05;0.43;;;;;;;;;;5025075;28;20500;-86
2022/11/18 09:15:58;;;;;;;2.72;0.63;;;;;;;;;;5020636;28;20030;-83
2022/11/18 09:18:24;;;;;;;0.50;0.50;;;;;;;;;;5022459;28;20029;-85
2022/11/18 09:20:54;;;;;;;0.60;0.60;;;;;;;;;;5026723;28;20748;-84
2022/11/18 09:23:19;;;;;;;0.40;0.40;;;;;;;;;;5027778;28;20022;-83
2022/11/18 09:25:45;;;;;;;0.43;0.43;;;;;;;;;;5029256;28;20112;-85
2022/11/18 09:28:10;;;;;;;0.40;0.40;;;;;;;;;;5015176;28;20033;-85
2022/11/18 09:30:39;;;;;;;0.60;0.60;;;;;;;;;;5013299;28;20025;-87
2022/11/18 09:33:05;;;;;;;0.98;0.88;;;;;;;;;;5027963;28;20160;-84
2022/11/18 09:35:34;;;;;;;0.35;0.35;;;;;;;;;;5012292;28;20025;-86
2022/11/18 09:38:05;;;;;;;0.40;0.40;;;;;;;;;;5024922;28;20403;-86
2022/11/18 09:40:44;;;;;;;0.50;0.50;;;;;;;;;;5034613;28;20041;-83
2022/11/18 09:43:20;;;;;;;0.20;0.20;;;;;;;;;;5009156;28;20278;-83
2022/11/18 09:45:53;;;;;;;5.30;0.80;;;;;;;;;;5007664;28;20029;-86
2022/11/18 09:51:18;;;;;;;0.38;0.38;;;;;;;;;;5023824;28;20124;-85
2022/11/18 09:53:50;;;;;;;1.55;0.40;;;;;;;;;;5023188;28;20156;-87
2022/11/18 09:56:27;;;;;;;3.63;2.33;;;;;;;;;;5008867;28;20562;-86
2022/11/18 09:58:56;;;;;;;0.82;0.82;;;;;;;;;;5007905;28;20029;-87
2022/11/18 10:01:22;;;;;;;3.22;1.20;;;;;;;;;;5017625;23;20041;-84
2022/11/18 10:03:48;;;;;;;4.88;2.00;;;;;;;;;;5029155;28;20030;-87
2022/11/18 10:06:28;;;;;;;3.88;2.88;;;;;;;;;;5037632;28;20083;-86
2022/11/18 10:09:07;;;;;;;5.03;2.42;;;;;;;;;;5039115;28;20391;-86
2022/11/18 10:11:40;;;;;;;12.85;6.43;;;;;;;;;;5052067;28;20467;-85
2022/11/18 10:14:41;;;;;;;40.65;23.85;;;;;;;;;;5078030;28;20054;-83
2022/11/18 10:17:40;;;;;;;9.82;4.90;;;;;;;;;;5015785;28;20037;-86
2022/11/18 10:20:31;;;;;;;6.63;4.40;;;;;;;;;;5061047;28;20032;-84
2022/11/18 10:23:21;;;;;;;3.30;2.42;;;;;;;;;;5041897;28;20494;-81
2022/11/18 10:25:47;;;;;;;9.57;8.48;;;;;;;;;;5035163;28;20024;-86
2022/11/18 10:28:28;;;;;;;2.97;1.52;;;;;;;;;;5038908;28;20025;-86
2022/11/18 10:31:03;;;;;;;4.80;3.00;;;;;;;;;;5040510;28;20457;-86
2022/11/18 10:33:29;;;;;;;3.20;2.17;;;;;;;;;;5048692;28;20098;-85
2022/11/18 10:36:18;;;;;;;1.73;1.63;;;;;;;;;;5045195;28;20035;-86
2022/11/18 10:38:44;;;;;;;4.28;1.58;;;;;;;;;;5047922;28;20079;-85
2022/11/18 10:44:34;;;;;;;3.30;2.83;;;;;;;;;;5042724;28;20045;-85
2022/11/18 10:47:31;;;;;;;4.70;3.22;;;;;;;;;;5040628;28;20192;-84
2022/11/18 10:50:21;;;;;;;3.75;2.30;;;;;;;;;;5027858;28;21334;-87
2022/11/18 10:52:55;;;;;;;1.40;1.30;;;;;;;;;;5052813;28;20437;-83
2022/11/18 10:55:23;;;;;;;28.90;12.18;;;;;;;;;;5077401;28;20023;-86
2022/11/18 10:57:53;;;;;;;34.53;13.52;;;;;;;;;;5069839;28;20056;-87
2022/11/18 11:02:45;;;;;;;6.13;2.50;;;;;;;;;;5047255;28;20503;-86
2022/11/18 11:05:33;;;;;;;15.85;6.25;;;;;;;;;;5033828;28;20049;-85
2022/11/18 11:08:24;;;;;;;16.45;8.15;;;;;;;;;;5028115;28;20488;-85
2022/11/18 11:11:24;;;;;;;7.10;3.75;;;;;;;;;;5012356;28;20084;-87
2022/11/18 11:13:52;;;;;;;4.57;3.28;;;;;;;;;;5015249;28;20092;-85
2022/11/18 11:16:20;;;;;;;5.18;3.22;;;;;;;;;;5000871;28;20028;-84
2022/11/18 11:18:51;;;;;;;2.05;1.77;;;;;;;;;;5001407;28;21300;-86
2022/11/18 11:21:24;;;;;;;3.13;1.90;;;;;;;;;;5000620;28;20026;-86
2022/11/18 11:23:50;;;;;;;1.48;0.77;;;;;;;;;;5000241;28;21261;-86
2022/11/18 11:26:40;;;;;;;3.92;1.77;;;;;;;;;;5002236;28;20034;-86
2022/11/18 11:29:08;;;;;;;2.42;1.20;;;;;;;;;;5016305;28;20121;-85
2022/11/18 11:31:38;;;;;;;1.20;1.20;;;;;;;;;;5020051;28;20037;-83
2022/11/18 11:34:26;;;;;;;1.20;1.05;;;;;;;;;;5022630;28;20504;-85
2022/11/18 11:37:08;;;;;;;0.57;0.57;;;;;;;;;;5019479;28;20026;-83
2022/11/18 11:39:42;;;;;;;4.10;1.80;;;;;;;;;;5009572;28;20045;-84
2022/11/18 11:42:21;;;;;;;1.33;1.23;;;;;;;;;;5016473;28;20057;-83
2022/11/18 11:45:23;;;;;;;1.35;1.25;;;;;;;;;;5034255;28;20025;-84
2022/11/18 11:47:58;;;;;;;;;;;;;;;;;;5029697;28;20468;-85
2022/11/18 11:50:52;;;;;;;0.80;0.80;;;;;;;;;;5017125;28;19920;-85
2022/11/18 11:53:46;;;;;;;0.73;0.73;;;;;;;;;;5010362;28;20090;-84
2022/11/18 11:56:26;;;;;;;1.55;1.20;;;;;;;;;;5020318;28;20105;-86
2022/11/18 11:59:07;;;;;;;1.85;0.82;;;;;;;;;;5001917;28;20036;-86
2022/11/18 12:01:41;;;;;;;1.30;1.20;;;;;;;;;;5018340;28;20037;-84
2022/11/18 12:04:34;;;;;;;1.00;1.00;;;;;;;;;;5001943;28;20268;-85
2022/11/18 12:07:02;;;;;;;0.98;0.98;;;;;;;;;;5007271;28;20026;-84
2022/11/18 12:09:33;;;;;;;1.30;1.00;;;;;;;;;;5007581;28;20078;-83
2022/11/18 12:12:33;;;;;;;2.58;0.85;;;;;;;;;;5012248;28;20033;-84
2022/11/18 12:15:17;;;;;;;2.50;0.90;;;;;;;;;;5012539;28;20073;-84
2022/11/18 12:18:03;;;;;;;0.80;0.80;;;;;;;;;;5030017;28;20041;-86
2022/11/18 12:20:49;;;;;;;1.00;0.95;;;;;;;;;;4992520;28;20504;-86
2022/11/18 12:23:28;;;;;;;1.42;1.25;;;;;;;;;;5013569;28;20033;-85
2022/11/18 12:26:12;;;;;;;0.80;0.80;;;;;;;;;;5013421;28;20026;-87
2022/11/18 12:28:40;;;;;;;4.65;1.27;;;;;;;;;;5009032;28;20112;-85
2022/11/18 12:31:18;;;;;;;0.82;0.82;;;;;;;;;;5006470;28;20030;-86
2022/11/18 12:33:48;;;;;;;1.23;0.85;;;;;;;;;;5011687;28;20586;-84
2022/11/18 12:36:27;;;;;;;0.88;0.55;;;;;;;;;;5007593;28;20044;-84
2022/11/18 12:38:57;;;;;;;0.80;0.80;;;;;;;;;;5006620;28;20038;-83
2022/11/18 12:44:24;;;;;;;1.80;1.40;;;;;;;;;;5010700;28;20114;-86
2022/11/18 12:46:53;;;;;;;0.63;0.60;;;;;;;;;;5005393;28;20057;-83
2022/11/18 12:49:21;;;;;;;1.25;0.77;;;;;;;;;;5004789;28;20033;-83
2022/11/18 12:51:49;;;;;;;1.65;0.68;;;;;;;;;;5002383;28;20025;-85
2022/11/18 12:54:40;;;;;;;1.95;1.52;;;;;;;;;;5006415;28;20180;-85
2022/11/18 12:57:28;;;;;;;3.65;0.95;;;;;;;;;;4996787;28;20054;-85
2022/11/18 12:59:53;;;;;;;2.47;0.90;;;;;;;;;;4997334;28;20121;-84
2022/11/18 13:02:27;;;;;;;5.85;1.08;;;;;;;;;;4999245;28;20752;-84
2022/11/18 13:05:03;;;;;;;3.15;1.30;;;;;;;;;;4998744;28;20038;-83
2022/11/18 13:10:22;;;;;;;2.92;1.08;;;;;;;;;;4998949;28;20044;-84
2022/11/18 13:12:48;;;;;;;5.68;1.40;;;;;;;;;;5000197;28;20037;-83
2022/11/18 13:18:16;;;;;;;10.05;1.80;;;;;;;;;;4991795;28;20037;-81
2022/11/18 13:20:42;;;;;;;2.15;1.77;;;;;;;;;;4991908;28;20034;-83
2022/11/18 13:25:52;;;;;;;12.50;4.53;;;;;;;;;;4994162;28;20053;-84
2022/11/18 13:28:34;;;;;;;10.35;3.65;;;;;;;;;;5004331;28;20042;-82
2022/11/18 13:31:30;;;;;;;4.30;2.10;;;;;;;;;;5010952;28;20419;-83
2022/11/18 13:34:01;;;;;;;2.40;1.85;;;;;;;;;;5028978;28;20061;-82
2022/11/18 13:36:27;;;;;;;6.03;3.33;;;;;;;;;;5031331;28;20021;-84
2022/11/18 13:38:57;;;;;;;1.88;1.55;;;;;;;;;;5033404;28;20024;-83
2022/11/18 13:41:23;;;;;;;0.80;0.80;;;;;;;;;;5014680;28;20029;-83
2022/11/18 13:43:50;;;;;;;8.70;2.95;;;;;;;;;;5019276;28;20148;-83
2022/11/18 13:46:19;;;;;;;3.88;1.52;;;;;;;;;;5007371;28;20022;-83
2022/11/18 13:48:54;;;;;;;8.52;3.20;;;;;;;;;;5008104;28;20041;-84
2022/11/18 13:51:21;;;;;;;4.53;1.70;;;;;;;;;;5009773;28;20068;-83
2022/11/18 13:53:47;;;;;;;3.72;2.20;;;;;;;;;;5008172;28;20760;-83
2022/11/18 13:56:23;;;;;;;1.52;1.23;;;;;;;;;;5018242;28;20080;-82
2022/11/18 13:58:48;;;;;;;2.47;1.13;;;;;;;;;;5011411;28;20050;-83
2022/11/18 14:01:25;;;;;;;7.63;3.92;;;;;;;;;;5009309;28;20037;-84
2022/11/18 14:03:52;;;;;;;7.00;3.65;;;;;;;;;;5006951;28;20092;-83
2022/11/18 14:06:45;;;;;;;3.13;1.40;;;;;;;;;;5009235;28;20038;-83
2022/11/18 14:09:25;;;;;;;5.88;2.78;;;;;;;;;;5024407;28;20444;-84
2022/11/18 14:12:22;;;;;;;2.92;1.90;;;;;;;;;;5011546;28;20050;-83
2022/11/18 14:14:47;;;;;;;1.92;1.50;;;;;;;;;;5000733;28;20030;-82
2022/11/18 14:17:19;;;;;;;3.17;1.33;;;;;;;;;;4998030;28;20298;-81
2022/11/18 14:19:49;;;;;;;2.70;1.92;;;;;;;;;;5004006;28;20059;-83
2022/11/18 14:22:24;;;;;;;1.50;1.40;;;;;;;;;;5002937;28;20393;-84
2022/11/18 14:25:03;;;;;;;2.10;1.63;;;;;;;;;;5005681;28;20018;-83
2022/11/18 14:27:38;;;;;;;2.22;1.38;;;;;;;;;;5006162;28;20552;-82
2022/11/18 14:30:26;;;;;;;3.28;1.60;;;;;;;;;;5025869;28;20060;-82
2022/11/18 14:33:08;;;;;;;2.15;1.90;;;;;;;;;;5019137;28;20065;-82
2022/11/18 14:35:34;;;;;;;7.40;3.95;;;;;;;;;;5010570;28;20446;-83
2022/11/18 14:37:59;;;;;;;4.35;2.33;;;;;;;;;;5009445;28;20033;-83
2022/11/18 14:40:30;;;;;;;4.40;2.60;;;;;;;;;;5011423;28;20021;-83
2022/11/18 14:42:55;;;;;;;4.18;2.78;;;;;;;;;;5006355;28;20022;-81
2022/11/18 14:45:23;;;;;;;5.35;2.13;;;;;;;;;;5007957;28;20052;-83
2022/11/18 14:47:48;;;;;;;2.38;1.00;;;;;;;;;;5003240;28;20034;-81
2022/11/18 14:50:14;;;;;;;1.35;1.20;;;;;;;;;;5000855;28;20095;-82
2022/11/18 14:52:39;;;;;;;1.30;1.20;;;;;;;;;;5004748;28;20037;-83
2022/11/18 14:55:05;;;;;;;2.20;1.13;;;;;;;;;;5015676;28;20044;-82
2022/11/18 14:57:31;;;;;;;2.13;1.50;;;;;;;;;;5001823;28;20034;-82
2022/11/18 14:59:57;;;;;;;2.70;1.50;;;;;;;;;;5008305;28;20033;-86
2022/11/18 15:02:22;;;;;;;5.10;1.80;;;;;;;;;;5001948;28;20013;-82
2022/11/18 15:04:49;;;;;;;2.13;1.60;;;;;;;;;;5003925;28;20017;-83
2022/11/18 15:07:15;;;;;;;1.90;1.60;;;;;;;;;;5005354;28;20481;-83
2022/11/18 15:09:41;;;;;;;7.40;2.00;;;;;;;;;;5005899;28;20025;-82
2022/11/18 15:12:06;;;;;;;1.65;1.55;;;;;;;;;;5001251;28;20026;-82
2022/11/18 15:14:33;;;;;;;3.05;1.67;;;;;;;;;;5005280;28;20033;-82
2022/11/18 15:16:59;;;;;;;3.47;1.15;;;;;;;;;;5000545;28;20090;-83
2022/11/18 15:19:24;;;;;;;5.40;1.45;;;;;;;;;;5003605;28;22002;-83
2022/11/18 15:21:49;;;;;;;2.25;1.30;;;;;;;;;;4997654;28;20033;-82
2022/11/18 15:24:15;;;;;;;1.48;1.13;;;;;;;;;;5017593;28;20025;-82
2022/11/18 15:26:44;;;;;;;1.00;1.00;;;;;;;;;;4998061;28;20033;-83
2022/11/18 15:29:21;;;;;;;4.95;1.23;;;;;;;;;;4999821;28;20037;-84
2022/11/18 15:31:47;;;;;;;2.45;0.80;;;;;;;;;;5002855;28;20112;-81
2022/11/18 15:34:17;;;;;;;5.90;1.15;;;;;;;;;;5001319;28;20180;-82
2022/11/18 15:36:46;;;;;;;0.75;0.75;;;;;;;;;;5021213;28;20025;-82
2022/11/18 15:39:11;;;;;;;1.23;0.95;;;;;;;;;;5005895;28;20049;-86
2022/11/18 15:41:38;;;;;;;0.85;0.85;;;;;;;;;;5005139;28;20030;-82
2022/11/18 15:44:04;;;;;;;2.42;0.90;;;;;;;;;;5006129;28;20064;-82
2022/11/18 15:46:32;;;;;;;3.22;1.33;;;;;;;;;;5005743;28;20057;-81
2022/11/18 15:48:58;;;;;;;3.08;1.35;;;;;;;;;;5016917;28;21299;-83